createdAt,value
2019-03-30T00:00:59.352Z,0.00
2019-03-30T00:01:59.344Z,0.00
2019-03-30T00:02:59.337Z,0.00
2019-03-30T00:03:59.324Z,0.00
2019-03-30T00:04:59.312Z,0.00
2019-03-30T00:05:59.300Z,0.00
2019-03-30T00:06:59.289Z,0.00
2019-03-30T00:07:59.276Z,0.00
2019-03-30T00:08:59.274Z,0.00
2019-03-30T00:09:59.261Z,0.00
2019-03-30T00:10:59.260Z,0.00
2019-03-30T00:11:59.244Z,0.00
2019-03-30T00:12:59.237Z,0.00
2019-03-30T00:13:59.218Z,0.00
2019-03-30T00:14:59.202Z,0.00
2019-03-30T00:15:59.203Z,0.00
2019-03-30T00:16:59.191Z,0.00
2019-03-30T00:17:59.175Z,0.00
2019-03-30T00:18:59.162Z,0.00
2019-03-30T00:19:59.155Z,0.00
2019-03-30T00:20:59.149Z,0.00
2019-03-30T00:21:59.129Z,0.00
2019-03-30T00:22:59.132Z,0.00
2019-03-30T00:23:59.107Z,0.00
2019-03-30T00:24:59.097Z,0.00
2019-03-30T00:25:59.096Z,0.00
2019-03-30T00:26:59.088Z,0.00
2019-03-30T00:27:59.067Z,0.00
2019-03-30T00:28:59.055Z,0.00
2019-03-30T00:29:59.047Z,0.00
2019-03-30T00:30:59.035Z,0.00
2019-03-30T00:31:59.045Z,0.00
2019-03-30T00:32:59.019Z,0.00
2019-03-30T00:33:59.009Z,0.00
2019-03-30T00:34:58.998Z,0.00
2019-03-30T00:35:58.979Z,0.00
2019-03-30T00:36:58.975Z,0.00
2019-03-30T00:37:58.963Z,0.00
2019-03-30T00:38:58.955Z,0.00
2019-03-30T00:39:58.936Z,0.00
2019-03-30T00:40:58.934Z,0.00
2019-03-30T00:41:58.921Z,0.00
2019-03-30T00:42:58.907Z,0.00
2019-03-30T00:43:58.895Z,0.00
2019-03-30T00:44:58.884Z,0.00
2019-03-30T00:45:58.875Z,0.00
2019-03-30T00:46:58.865Z,0.00
2019-03-30T00:47:58.856Z,0.00
2019-03-30T00:48:58.849Z,0.00
2019-03-30T00:49:58.833Z,0.00
2019-03-30T00:50:58.830Z,0.00
2019-03-30T00:51:58.815Z,0.00
2019-03-30T00:52:58.802Z,0.00
2019-03-30T00:53:58.793Z,0.00
2019-03-30T00:54:58.784Z,0.00
2019-03-30T00:55:58.775Z,0.00
2019-03-30T00:56:58.764Z,0.00
2019-03-30T00:57:58.757Z,0.00
2019-03-30T00:58:58.738Z,0.00
2019-03-30T00:59:58.733Z,0.00
2019-03-30T01:00:58.720Z,0.00
2019-03-30T01:01:58.717Z,0.00
2019-03-30T01:02:58.697Z,0.00
2019-03-30T01:03:58.690Z,0.00
2019-03-30T01:04:58.669Z,0.00
2019-03-30T01:05:58.671Z,0.00
2019-03-30T01:06:58.655Z,0.00
2019-03-30T01:07:58.649Z,0.00
2019-03-30T01:08:58.631Z,0.00
2019-03-30T01:09:58.620Z,0.00
2019-03-30T01:10:58.613Z,0.00
2019-03-30T01:11:58.609Z,0.00
2019-03-30T01:12:58.593Z,0.00
2019-03-30T01:13:58.582Z,0.00
2019-03-30T01:14:58.568Z,0.00
2019-03-30T01:15:58.552Z,0.00
2019-03-30T01:16:58.548Z,0.00
2019-03-30T01:17:58.533Z,0.00
2019-03-30T01:18:58.533Z,0.00
2019-03-30T01:20:03.152Z,0.00
2019-03-30T01:20:59.500Z,0.00
2019-03-30T01:21:58.495Z,0.00
2019-03-30T01:22:58.479Z,0.00
2019-03-30T01:23:58.470Z,0.00
2019-03-30T01:24:58.461Z,0.00
2019-03-30T01:25:58.448Z,0.00
2019-03-30T01:26:58.442Z,0.00
2019-03-30T01:27:58.429Z,0.00
2019-03-30T01:28:58.423Z,0.00
2019-03-30T01:29:58.416Z,0.00
2019-03-30T01:30:58.403Z,0.00
2019-03-30T01:31:58.384Z,0.00
2019-03-30T01:32:58.369Z,0.00
2019-03-30T01:33:58.362Z,0.00
2019-03-30T01:34:58.398Z,0.00
2019-03-30T01:35:58.415Z,0.00
2019-03-30T01:36:58.327Z,0.00
2019-03-30T01:37:58.334Z,0.00
2019-03-30T01:38:58.307Z,0.00
2019-03-30T01:39:58.302Z,0.00
2019-03-30T01:40:58.282Z,0.00
2019-03-30T01:41:58.280Z,0.00
2019-03-30T01:42:58.264Z,0.00
2019-03-30T01:43:58.256Z,0.00
2019-03-30T01:44:58.242Z,0.00
2019-03-30T01:45:58.240Z,0.00
2019-03-30T01:46:58.221Z,0.00
2019-03-30T01:47:58.217Z,0.00
2019-03-30T01:48:58.200Z,0.00
2019-03-30T01:49:58.210Z,0.00
2019-03-30T01:50:58.180Z,0.00
2019-03-30T01:51:58.166Z,0.00
2019-03-30T01:52:58.154Z,0.00
2019-03-30T01:53:58.146Z,0.00
2019-03-30T01:54:58.135Z,0.00
2019-03-30T01:55:58.131Z,0.00
2019-03-30T01:56:58.119Z,0.00
2019-03-30T01:57:58.108Z,0.00
2019-03-30T01:58:58.096Z,0.00
2019-03-30T01:59:58.083Z,0.00
2019-03-30T02:00:58.068Z,0.00
2019-03-30T02:01:58.063Z,0.00
2019-03-30T02:02:58.054Z,0.00
2019-03-30T02:03:58.038Z,0.00
2019-03-30T02:04:58.034Z,0.00
2019-03-30T02:05:58.016Z,0.00
2019-03-30T02:06:58.009Z,0.00
2019-03-30T02:07:57.998Z,0.00
2019-03-30T02:08:57.984Z,0.00
2019-03-30T02:09:57.974Z,0.00
2019-03-30T02:10:57.964Z,0.00
2019-03-30T02:11:57.957Z,0.00
2019-03-30T02:12:57.944Z,0.00
2019-03-30T02:13:57.934Z,0.00
2019-03-30T02:14:57.921Z,0.00
2019-03-30T02:15:57.915Z,0.00
2019-03-30T02:16:57.901Z,0.00
2019-03-30T02:17:57.886Z,0.00
2019-03-30T02:18:57.876Z,0.00
2019-03-30T02:19:57.874Z,0.00
2019-03-30T02:20:57.863Z,0.00
2019-03-30T02:21:57.872Z,0.00
2019-03-30T02:22:57.834Z,0.00
2019-03-30T02:23:57.818Z,0.00
2019-03-30T02:24:57.830Z,0.00
2019-03-30T02:25:57.806Z,0.00
2019-03-30T02:26:57.804Z,0.00
2019-03-30T02:27:57.777Z,0.00
2019-03-30T02:28:57.774Z,0.00
2019-03-30T02:29:57.762Z,0.00
2019-03-30T02:30:57.756Z,0.00
2019-03-30T02:31:57.743Z,0.00
2019-03-30T02:32:57.727Z,0.00
2019-03-30T02:33:57.716Z,0.00
2019-03-30T02:34:57.706Z,0.00
2019-03-30T02:35:57.697Z,0.00
2019-03-30T02:36:57.700Z,0.00
2019-03-30T02:37:57.684Z,0.00
2019-03-30T02:38:57.688Z,0.00
2019-03-30T02:39:57.648Z,0.00
2019-03-30T02:40:57.647Z,0.00
2019-03-30T02:41:57.635Z,0.00
2019-03-30T02:42:57.622Z,0.00
2019-03-30T02:43:57.615Z,0.00
2019-03-30T02:44:57.602Z,0.00
2019-03-30T02:45:57.583Z,0.00
2019-03-30T02:46:57.571Z,0.00
2019-03-30T02:47:57.578Z,0.00
2019-03-30T02:48:57.567Z,0.00
2019-03-30T02:49:57.558Z,0.00
2019-03-30T02:50:57.525Z,0.00
2019-03-30T02:51:57.519Z,0.00
2019-03-30T02:52:57.522Z,0.00
2019-03-30T02:53:57.500Z,0.00
2019-03-30T02:54:57.495Z,0.00
2019-03-30T02:55:57.506Z,0.00
2019-03-30T02:56:57.468Z,0.00
2019-03-30T02:57:57.456Z,0.00
2019-03-30T02:58:57.448Z,0.00
2019-03-30T02:59:57.443Z,0.00
2019-03-30T03:00:57.435Z,0.00
2019-03-30T03:01:57.418Z,0.00
2019-03-30T03:02:57.407Z,0.00
2019-03-30T03:03:57.393Z,0.00
2019-03-30T03:04:57.379Z,0.00
2019-03-30T03:05:57.369Z,0.00
2019-03-30T03:06:57.366Z,0.00
2019-03-30T03:07:57.348Z,0.00
2019-03-30T03:08:57.339Z,0.00
2019-03-30T03:09:57.323Z,0.00
2019-03-30T03:10:57.317Z,0.00
2019-03-30T03:11:57.314Z,0.00
2019-03-30T03:12:57.306Z,0.00
2019-03-30T03:13:57.279Z,0.00
2019-03-30T03:14:57.273Z,0.00
2019-03-30T03:15:57.265Z,0.00
2019-03-30T03:16:57.249Z,0.00
2019-03-30T03:17:57.249Z,0.00
2019-03-30T03:18:57.230Z,0.00
2019-03-30T03:19:57.219Z,0.00
2019-03-30T03:21:07.490Z,0.00
2019-03-30T03:21:58.205Z,0.00
2019-03-30T03:22:57.187Z,0.00
2019-03-30T03:23:57.180Z,0.00
2019-03-30T03:24:57.168Z,0.00
2019-03-30T03:25:57.158Z,0.00
2019-03-30T03:26:57.143Z,0.00
2019-03-30T03:27:57.127Z,0.00
2019-03-30T03:28:57.122Z,0.00
2019-03-30T03:29:57.128Z,0.00
2019-03-30T03:30:57.101Z,0.00
2019-03-30T03:31:57.109Z,0.00
2019-03-30T03:32:57.077Z,0.00
2019-03-30T03:33:57.069Z,0.00
2019-03-30T03:34:57.062Z,0.00
2019-03-30T03:35:57.043Z,0.00
2019-03-30T03:36:57.037Z,0.00
2019-03-30T03:37:57.028Z,0.00
2019-03-30T03:38:57.016Z,0.00
2019-03-30T03:39:57.007Z,0.00
2019-03-30T03:40:57.000Z,0.00
2019-03-30T03:41:56.983Z,0.00
2019-03-30T03:42:56.971Z,0.00
2019-03-30T03:43:56.965Z,0.00
2019-03-30T03:44:56.954Z,0.00
2019-03-30T03:45:56.946Z,0.00
2019-03-30T03:46:56.926Z,0.00
2019-03-30T03:47:56.928Z,0.00
2019-03-30T03:48:56.910Z,0.00
2019-03-30T03:49:56.903Z,0.00
2019-03-30T03:50:56.884Z,0.00
2019-03-30T03:51:56.874Z,0.00
2019-03-30T03:52:56.874Z,0.00
2019-03-30T03:53:56.987Z,0.00
2019-03-30T03:54:56.845Z,0.00
2019-03-30T03:55:56.841Z,0.00
2019-03-30T03:56:56.816Z,0.00
2019-03-30T03:57:56.813Z,0.00
2019-03-30T03:58:56.801Z,0.00
2019-03-30T03:59:56.791Z,0.00
2019-03-30T04:00:56.781Z,0.00
2019-03-30T04:01:56.778Z,0.00
2019-03-30T04:02:56.762Z,0.00
2019-03-30T04:03:56.756Z,0.00
2019-03-30T04:04:56.737Z,0.00
2019-03-30T04:05:56.738Z,0.00
2019-03-30T04:06:56.709Z,0.00
2019-03-30T04:07:56.702Z,0.00
2019-03-30T04:08:56.701Z,0.00
2019-03-30T04:09:56.679Z,0.00
2019-03-30T04:10:56.679Z,0.00
2019-03-30T04:11:56.677Z,0.00
2019-03-30T04:12:56.647Z,0.00
2019-03-30T04:13:56.641Z,0.00
2019-03-30T04:14:56.632Z,0.00
2019-03-30T04:15:56.615Z,0.00
2019-03-30T04:16:56.618Z,4.00
2019-03-30T04:17:56.593Z,4.00
2019-03-30T04:18:56.594Z,0.00
2019-03-30T04:19:56.575Z,0.00
2019-03-30T04:20:56.559Z,4.00
2019-03-30T04:21:56.548Z,0.00
2019-03-30T04:22:56.550Z,4.00
2019-03-30T04:23:56.530Z,4.00
2019-03-30T04:24:56.526Z,4.00
2019-03-30T04:25:56.513Z,8.00
2019-03-30T04:26:56.508Z,8.00
2019-03-30T04:27:56.487Z,8.00
2019-03-30T04:28:56.486Z,8.00
2019-03-30T04:29:56.471Z,12.00
2019-03-30T04:30:56.457Z,16.00
2019-03-30T04:31:56.558Z,20.00
2019-03-30T04:32:56.451Z,24.00
2019-03-30T04:33:56.425Z,28.00
2019-03-30T04:34:56.417Z,28.00
2019-03-30T04:35:56.403Z,32.00
2019-03-30T04:36:56.394Z,40.00
2019-03-30T04:37:56.388Z,44.00
2019-03-30T04:38:56.370Z,44.00
2019-03-30T04:39:56.366Z,48.00
2019-03-30T04:40:56.354Z,52.00
2019-03-30T04:41:56.339Z,60.00
2019-03-30T04:42:56.332Z,68.00
2019-03-30T04:43:56.316Z,72.00
2019-03-30T04:44:56.306Z,80.00
2019-03-30T04:45:56.293Z,88.00
2019-03-30T04:46:56.286Z,96.00
2019-03-30T04:47:56.282Z,104.00
2019-03-30T04:48:56.275Z,112.00
2019-03-30T04:49:56.255Z,124.00
2019-03-30T04:50:56.240Z,140.00
2019-03-30T04:51:57.649Z,156.00
2019-03-30T04:52:56.228Z,168.00
2019-03-30T04:53:56.212Z,192.00
2019-03-30T04:54:56.211Z,208.00
2019-03-30T04:55:56.188Z,232.00
2019-03-30T04:56:56.180Z,256.00
2019-03-30T04:57:57.704Z,280.00
2019-03-30T04:58:56.157Z,304.00
2019-03-30T04:59:56.156Z,328.00
2019-03-30T05:00:56.136Z,356.00
2019-03-30T05:01:56.127Z,384.00
2019-03-30T05:02:56.204Z,412.00
2019-03-30T05:03:56.105Z,444.00
2019-03-30T05:04:56.093Z,480.00
2019-03-30T05:05:56.107Z,520.00
2019-03-30T05:06:56.074Z,556.00
2019-03-30T05:07:56.056Z,596.00
2019-03-30T05:08:56.050Z,640.00
2019-03-30T05:09:56.049Z,680.00
2019-03-30T05:10:56.045Z,724.00
2019-03-30T05:11:56.026Z,768.00
2019-03-30T05:12:56.011Z,820.00
2019-03-30T05:13:55.998Z,868.00
2019-03-30T05:14:55.987Z,920.00
2019-03-30T05:15:55.972Z,980.00
2019-03-30T05:16:55.972Z,1036.00
2019-03-30T05:17:55.954Z,1092.00
2019-03-30T05:18:55.948Z,1136.00
2019-03-30T05:19:55.928Z,1176.00
2019-03-30T05:20:55.917Z,1228.00
2019-03-30T05:21:55.924Z,1292.00
2019-03-30T05:22:55.902Z,1380.00
2019-03-30T05:23:55.886Z,1460.00
2019-03-30T05:24:55.882Z,1516.00
2019-03-30T05:25:55.864Z,1524.00
2019-03-30T05:26:55.860Z,1520.00
2019-03-30T05:27:55.851Z,1580.00
2019-03-30T05:28:55.845Z,1620.00
2019-03-30T05:29:55.826Z,1672.00
2019-03-30T05:30:55.818Z,1720.00
2019-03-30T05:31:55.805Z,1760.00
2019-03-30T05:33:05.447Z,1784.00
2019-03-30T05:33:56.789Z,1816.00
2019-03-30T05:34:55.785Z,1836.00
2019-03-30T05:35:55.761Z,1848.00
2019-03-30T05:36:55.750Z,1872.00
2019-03-30T05:37:55.744Z,1852.00
2019-03-30T05:38:55.741Z,1868.00
2019-03-30T05:39:55.730Z,1896.00
2019-03-30T05:40:55.784Z,1964.00
2019-03-30T05:41:55.694Z,2060.00
2019-03-30T05:42:55.684Z,2148.00
2019-03-30T05:43:55.701Z,2240.00
2019-03-30T05:44:57.828Z,2348.00
2019-03-30T05:45:55.659Z,2440.00
2019-03-30T05:46:55.637Z,2532.00
2019-03-30T05:47:55.635Z,2628.00
2019-03-30T05:48:55.623Z,2712.00
2019-03-30T05:49:55.684Z,2796.00
2019-03-30T05:50:55.610Z,2856.00
2019-03-30T05:51:55.583Z,2760.00
2019-03-30T05:52:55.585Z,2956.00
2019-03-30T05:53:55.567Z,3140.00
2019-03-30T05:54:55.562Z,3232.00
2019-03-30T05:55:55.557Z,3300.00
2019-03-30T05:56:55.539Z,3404.00
2019-03-30T05:57:55.522Z,3528.00
2019-03-30T05:58:55.514Z,3596.00
2019-03-30T05:59:56.043Z,3680.00
2019-03-30T06:00:55.514Z,3704.00
2019-03-30T06:01:55.486Z,3680.00
2019-03-30T06:02:55.476Z,3696.00
2019-03-30T06:03:55.462Z,3844.00
2019-03-30T06:04:55.457Z,3940.00
2019-03-30T06:05:55.442Z,3996.00
2019-03-30T06:06:55.454Z,4048.00
2019-03-30T06:07:55.422Z,4156.00
2019-03-30T06:08:55.413Z,4232.00
2019-03-30T06:09:55.400Z,4420.00
2019-03-30T06:10:55.386Z,4704.00
2019-03-30T06:11:55.385Z,5412.00
2019-03-30T06:12:55.375Z,8436.00
2019-03-30T06:13:55.364Z,20000.00
2019-03-30T06:14:55.366Z,33184.00
2019-03-30T06:15:55.334Z,32896.00
2019-03-30T06:16:55.317Z,38624.00
2019-03-30T06:17:55.317Z,40192.00
2019-03-30T06:18:55.304Z,40544.00
2019-03-30T06:19:55.298Z,40192.00
2019-03-30T06:20:55.304Z,40672.00
2019-03-30T06:21:55.266Z,40832.00
2019-03-30T06:22:55.258Z,41344.00
2019-03-30T06:23:55.255Z,41760.00
2019-03-30T06:24:55.243Z,38912.00
2019-03-30T06:25:55.231Z,22912.00
2019-03-30T06:26:55.217Z,9544.00
2019-03-30T06:27:55.211Z,8312.00
2019-03-30T06:28:55.197Z,8100.00
2019-03-30T06:29:55.176Z,8112.00
2019-03-30T06:30:55.182Z,7536.00
2019-03-30T06:31:55.164Z,8144.00
2019-03-30T06:32:55.153Z,8220.00
2019-03-30T06:33:55.140Z,8224.00
2019-03-30T06:34:55.130Z,8256.00
2019-03-30T06:35:55.118Z,8340.00
2019-03-30T06:36:55.112Z,8140.00
2019-03-30T06:37:55.093Z,8476.00
2019-03-30T06:38:55.101Z,8672.00
2019-03-30T06:39:55.074Z,8948.00
2019-03-30T06:40:55.068Z,9780.00
2019-03-30T06:41:55.065Z,23008.00
2019-03-30T06:42:55.059Z,44256.00
2019-03-30T06:43:55.026Z,53824.00
2019-03-30T06:44:55.025Z,53408.00
2019-03-30T06:45:55.019Z,53856.00
2019-03-30T06:46:55.003Z,55648.00
2019-03-30T06:47:54.996Z,57408.00
2019-03-30T06:48:54.974Z,59200.00
2019-03-30T06:49:54.964Z,58624.00
2019-03-30T06:50:54.970Z,57984.00
2019-03-30T06:51:55.016Z,55616.00
2019-03-30T06:52:57.809Z,51136.00
2019-03-30T06:53:54.926Z,48160.00
2019-03-30T06:54:54.913Z,44096.00
2019-03-30T06:55:54.911Z,44064.00
2019-03-30T06:56:54.890Z,41568.00
2019-03-30T06:57:54.913Z,39968.00
2019-03-30T06:58:54.874Z,40128.00
2019-03-30T06:59:54.866Z,42656.00
2019-03-30T07:00:54.858Z,40128.00
2019-03-30T07:01:54.850Z,35328.00
2019-03-30T07:02:54.848Z,36128.00
2019-03-30T07:03:54.850Z,38336.00
2019-03-30T07:04:54.845Z,35872.00
2019-03-30T07:05:54.793Z,22752.00
2019-03-30T07:06:54.781Z,12084.00
2019-03-30T07:07:54.776Z,10480.00
2019-03-30T07:08:54.780Z,9988.00
2019-03-30T07:09:54.753Z,9728.00
2019-03-30T07:10:54.742Z,9560.00
2019-03-30T07:11:54.727Z,9388.00
2019-03-30T07:12:54.721Z,9332.00
2019-03-30T07:13:54.712Z,9416.00
2019-03-30T07:14:54.783Z,9404.00
2019-03-30T07:15:54.689Z,9204.00
2019-03-30T07:16:54.681Z,9340.00
2019-03-30T07:17:54.664Z,9284.00
2019-03-30T07:18:54.655Z,9284.00
2019-03-30T07:19:54.641Z,9404.00
2019-03-30T07:20:54.632Z,9392.00
2019-03-30T07:21:54.619Z,9452.00
2019-03-30T07:22:54.626Z,9420.00
2019-03-30T07:23:54.608Z,9508.00
2019-03-30T07:24:54.626Z,9600.00
2019-03-30T07:25:54.582Z,9668.00
2019-03-30T07:26:54.567Z,9852.00
2019-03-30T07:27:54.560Z,9976.00
2019-03-30T07:28:54.551Z,9948.00
2019-03-30T07:29:54.537Z,9688.00
2019-03-30T07:30:54.525Z,10060.00
2019-03-30T07:31:54.510Z,10076.00
2019-03-30T07:32:54.504Z,10104.00
2019-03-30T07:33:54.494Z,10252.00
2019-03-30T07:34:54.483Z,10400.00
2019-03-30T07:35:54.470Z,10536.00
2019-03-30T07:36:54.465Z,10608.00
2019-03-30T07:37:54.453Z,10728.00
2019-03-30T07:38:54.438Z,10848.00
2019-03-30T07:39:54.432Z,10924.00
2019-03-30T07:40:54.410Z,11028.00
2019-03-30T07:41:54.409Z,11116.00
2019-03-30T07:42:54.415Z,11236.00
2019-03-30T07:43:54.385Z,11328.00
2019-03-30T07:44:54.378Z,11384.00
2019-03-30T07:45:54.364Z,11480.00
2019-03-30T07:46:54.348Z,11580.00
2019-03-30T07:47:54.346Z,11628.00
2019-03-30T07:48:54.339Z,11560.00
2019-03-30T07:49:54.324Z,11604.00
2019-03-30T07:50:54.306Z,11624.00
2019-03-30T07:51:54.307Z,11716.00
2019-03-30T07:52:54.291Z,11896.00
2019-03-30T07:53:54.284Z,12128.00
2019-03-30T07:54:54.268Z,12200.00
2019-03-30T07:56:07.440Z,12552.00
2019-03-30T07:57:05.077Z,12708.00
2019-03-30T07:57:55.283Z,12852.00
2019-03-30T07:58:54.223Z,19648.00
2019-03-30T07:59:54.222Z,56736.00
2019-03-30T08:00:54.203Z,82880.00
2019-03-30T08:01:54.196Z,86880.00
2019-03-30T08:02:54.178Z,86944.00
2019-03-30T08:03:54.190Z,86592.00
2019-03-30T08:04:54.156Z,88544.00
2019-03-30T08:05:54.561Z,90368.00
2019-03-30T08:06:54.142Z,90496.00
2019-03-30T08:07:54.120Z,92800.00
2019-03-30T08:08:54.122Z,93088.00
2019-03-30T08:09:54.115Z,91744.00
2019-03-30T08:10:54.094Z,94944.00
2019-03-30T08:11:54.086Z,94560.00
2019-03-30T08:12:54.086Z,90656.00
2019-03-30T08:13:54.076Z,92992.00
2019-03-30T08:14:54.057Z,93120.00
2019-03-30T08:15:54.056Z,91808.00
2019-03-30T08:16:54.033Z,91968.00
2019-03-30T08:17:54.021Z,81664.00
2019-03-30T08:18:54.013Z,92992.00
2019-03-30T08:19:54.004Z,90496.00
2019-03-30T08:20:53.986Z,88832.00
2019-03-30T08:21:53.985Z,87584.00
2019-03-30T08:22:53.974Z,88384.00
2019-03-30T08:23:53.964Z,87040.00
2019-03-30T08:24:53.950Z,86944.00
2019-03-30T08:25:53.942Z,88960.00
2019-03-30T08:26:53.935Z,89568.00
2019-03-30T08:27:53.921Z,85152.00
2019-03-30T08:28:53.917Z,87104.00
2019-03-30T08:29:53.909Z,90048.00
2019-03-30T08:30:53.894Z,91552.00
2019-03-30T08:31:53.879Z,91136.00
2019-03-30T08:32:53.868Z,91264.00
2019-03-30T08:33:53.856Z,88544.00
2019-03-30T08:34:53.875Z,92288.00
2019-03-30T08:35:53.845Z,91296.00
2019-03-30T08:36:53.847Z,92128.00
2019-03-30T08:37:53.821Z,89984.00
2019-03-30T08:38:53.810Z,88992.00
2019-03-30T08:39:53.859Z,90688.00
2019-03-30T08:40:53.806Z,97664.00
2019-03-30T08:41:53.783Z,93856.00
2019-03-30T08:42:53.788Z,97408.00
2019-03-30T08:43:53.759Z,101984.00
2019-03-30T08:44:53.752Z,100512.00
2019-03-30T08:45:53.733Z,98112.00
2019-03-30T08:46:53.738Z,96064.00
2019-03-30T08:47:53.725Z,90944.00
2019-03-30T08:48:53.723Z,91776.00
2019-03-30T08:49:53.698Z,93792.00
2019-03-30T08:50:53.705Z,92384.00
2019-03-30T08:51:53.682Z,93344.00
2019-03-30T08:52:53.683Z,98400.00
2019-03-30T08:53:54.742Z,97760.00
2019-03-30T08:54:53.659Z,97568.00
2019-03-30T08:55:53.672Z,96832.00
2019-03-30T08:56:53.631Z,99136.00
2019-03-30T08:57:53.627Z,97120.00
2019-03-30T08:58:53.620Z,96352.00
2019-03-30T08:59:53.607Z,98560.00
2019-03-30T09:00:53.632Z,98240.00
2019-03-30T09:01:53.589Z,99744.00
2019-03-30T09:02:53.581Z,100480.00
2019-03-30T09:03:53.567Z,100256.00
2019-03-30T09:04:53.566Z,96544.00
2019-03-30T09:05:53.549Z,97504.00
2019-03-30T09:06:53.559Z,99680.00
2019-03-30T09:07:53.533Z,100160.00
2019-03-30T09:08:53.526Z,97440.00
2019-03-30T09:09:53.509Z,98208.00
2019-03-30T09:10:53.513Z,91456.00
2019-03-30T09:11:53.494Z,74720.00
2019-03-30T09:12:53.487Z,77184.00
2019-03-30T09:13:53.483Z,60960.00
2019-03-30T09:14:53.469Z,66400.00
2019-03-30T09:15:53.452Z,65440.00
2019-03-30T09:16:53.452Z,76896.00
2019-03-30T09:17:53.435Z,73824.00
2019-03-30T09:18:53.435Z,84864.00
2019-03-30T09:19:53.414Z,84832.00
2019-03-30T09:20:53.413Z,93088.00
2019-03-30T09:21:53.393Z,94016.00
2019-03-30T09:22:53.392Z,89024.00
2019-03-30T09:23:53.379Z,86560.00
2019-03-30T09:24:53.383Z,93696.00
2019-03-30T09:25:53.359Z,85024.00
2019-03-30T09:26:53.343Z,83456.00
2019-03-30T09:27:53.339Z,90016.00
2019-03-30T09:28:53.355Z,88608.00
2019-03-30T09:29:53.321Z,88480.00
2019-03-30T09:30:53.313Z,85760.00
2019-03-30T09:31:53.297Z,94944.00
2019-03-30T09:32:53.294Z,96000.00
2019-03-30T09:33:53.276Z,101344.00
2019-03-30T09:34:53.288Z,99424.00
2019-03-30T09:35:53.264Z,101824.00
2019-03-30T09:36:53.348Z,100448.00
2019-03-30T09:37:53.239Z,98816.00
2019-03-30T09:38:53.243Z,99616.00
2019-03-30T09:39:53.226Z,98048.00
2019-03-30T09:40:53.208Z,92256.00
2019-03-30T09:41:53.212Z,94240.00
2019-03-30T09:42:53.205Z,93952.00
2019-03-30T09:43:53.181Z,98528.00
2019-03-30T09:44:53.178Z,95360.00
2019-03-30T09:45:53.163Z,88928.00
2019-03-30T09:46:53.155Z,93056.00
2019-03-30T09:47:53.146Z,96064.00
2019-03-30T09:48:53.153Z,94048.00
2019-03-30T09:49:53.127Z,95200.00
2019-03-30T09:50:53.122Z,101888.00
2019-03-30T09:51:53.109Z,104544.00
2019-03-30T09:52:53.098Z,102240.00
2019-03-30T09:53:53.094Z,98112.00
2019-03-30T09:54:53.077Z,93472.00
2019-03-30T09:55:53.069Z,94272.00
2019-03-30T09:56:53.059Z,99392.00
2019-03-30T09:57:53.072Z,99488.00
2019-03-30T09:58:53.047Z,95616.00
2019-03-30T09:59:53.032Z,93888.00
2019-03-30T10:00:53.030Z,92864.00
2019-03-30T10:01:53.011Z,14876.00
2019-03-30T10:02:53.000Z,83328.00
2019-03-30T10:03:52.990Z,48096.00
2019-03-30T10:04:52.990Z,50720.00
2019-03-30T10:05:52.971Z,77440.00
2019-03-30T10:06:52.971Z,84384.00
2019-03-30T10:07:52.952Z,51296.00
2019-03-30T10:08:52.938Z,61728.00
2019-03-30T10:09:52.944Z,12688.00
2019-03-30T10:10:52.927Z,63360.00
2019-03-30T10:46:08.163Z,68032.00
2019-03-30T10:47:08.128Z,39968.00
2019-03-30T11:39:18.663Z,35360.00
2019-03-30T11:40:18.638Z,26944.00
2019-03-30T11:41:49.372Z,15792.00
2019-03-30T11:42:49.351Z,30240.00
2019-03-30T11:44:20.113Z,35008.00
2019-03-30T11:45:20.094Z,28256.00
2019-03-30T11:46:50.827Z,19552.00
2019-03-30T11:47:50.801Z,23008.00
2019-03-30T11:49:21.470Z,21056.00
2019-03-30T11:50:21.462Z,7816.00
2019-03-30T11:51:52.209Z,19456.00
2019-03-30T11:52:52.182Z,38048.00
2019-03-30T11:54:22.936Z,42080.00
2019-03-30T11:55:22.935Z,34272.00
2019-03-30T11:56:53.687Z,30400.00
2019-03-30T11:57:53.653Z,36256.00
2019-03-30T11:59:24.369Z,39104.00
2019-03-30T12:00:24.362Z,41760.00
2019-03-30T12:01:55.044Z,34880.00
2019-03-30T12:02:55.026Z,25792.00
2019-03-30T12:04:25.789Z,31520.00
2019-03-30T12:05:25.774Z,17760.00
2019-03-30T12:06:56.414Z,28256.00
2019-03-30T12:07:56.411Z,50816.00
2019-03-30T12:09:27.192Z,24672.00
2019-03-30T12:10:27.125Z,7632.00
2019-03-30T12:11:57.884Z,5916.00
2019-03-30T12:12:57.862Z,5828.00
2019-03-30T12:13:57.853Z,5800.00
2019-03-30T12:14:57.916Z,5988.00
2019-03-30T12:15:57.830Z,6036.00
2019-03-30T12:16:57.816Z,5956.00
2019-03-30T12:17:57.808Z,5852.00
2019-03-30T12:18:57.811Z,5776.00
2019-03-30T12:19:57.794Z,5784.00
2019-03-30T12:20:57.783Z,5788.00
2019-03-30T12:21:57.774Z,5800.00
2019-03-30T12:22:57.758Z,5704.00
2019-03-30T12:23:57.757Z,5896.00
2019-03-30T12:24:57.730Z,6064.00
2019-03-30T12:25:57.729Z,6040.00
2019-03-30T12:26:57.719Z,6032.00
2019-03-30T12:27:57.766Z,5912.00
2019-03-30T12:28:57.698Z,5884.00
2019-03-30T12:29:57.693Z,5712.00
2019-03-30T12:30:57.672Z,5520.00
2019-03-30T12:31:57.662Z,5520.00
2019-03-30T12:32:57.662Z,5684.00
2019-03-30T12:33:57.645Z,6048.00
2019-03-30T12:34:57.630Z,15204.00
2019-03-30T12:35:57.615Z,18144.00
2019-03-30T12:36:57.627Z,18176.00
2019-03-30T12:37:57.590Z,22528.00
2019-03-30T12:38:57.601Z,19040.00
2019-03-30T12:39:58.428Z,22080.00
2019-03-30T12:40:57.572Z,19936.00
2019-03-30T12:41:57.554Z,15732.00
2019-03-30T12:42:57.532Z,18048.00
2019-03-30T12:43:57.534Z,14808.00
2019-03-30T12:44:57.518Z,11884.00
2019-03-30T12:45:57.513Z,17824.00
2019-03-30T12:46:57.506Z,18304.00
2019-03-30T12:47:57.492Z,15504.00
2019-03-30T12:48:57.556Z,12396.00
2019-03-30T12:49:57.466Z,6076.00
2019-03-30T12:50:57.448Z,9828.00
2019-03-30T12:51:57.458Z,18432.00
2019-03-30T12:52:57.432Z,17728.00
2019-03-30T12:53:57.430Z,14240.00
2019-03-30T12:54:57.476Z,13520.00
2019-03-30T12:55:57.390Z,12108.00
2019-03-30T12:56:57.386Z,11268.00
2019-03-30T12:57:57.385Z,11404.00
2019-03-30T12:58:57.359Z,12172.00
2019-03-30T13:00:58.338Z,15264.00
2019-03-30T13:01:57.332Z,15968.00
2019-03-30T13:02:57.320Z,10736.00
2019-03-30T13:03:57.309Z,12768.00
2019-03-30T13:04:57.298Z,13348.00
2019-03-30T13:05:57.288Z,10412.00
2019-03-30T13:06:57.285Z,6428.00
2019-03-30T13:07:57.264Z,5876.00
2019-03-30T13:08:57.258Z,5956.00
2019-03-30T13:09:57.262Z,5680.00
2019-03-30T13:10:57.228Z,5472.00
2019-03-30T13:11:57.218Z,5476.00
2019-03-30T13:12:57.231Z,5660.00
2019-03-30T13:13:57.198Z,5580.00
2019-03-30T13:14:57.199Z,5272.00
2019-03-30T13:15:57.177Z,5268.00
2019-03-30T13:16:57.168Z,5244.00
2019-03-30T13:17:57.180Z,5196.00
2019-03-30T13:18:57.150Z,5228.00
2019-03-30T13:19:57.142Z,5324.00
2019-03-30T13:20:57.124Z,5332.00
2019-03-30T13:21:57.118Z,5320.00
2019-03-30T13:22:57.103Z,5148.00
2019-03-30T13:23:57.225Z,5140.00
2019-03-30T13:24:57.089Z,5196.00
2019-03-30T13:26:03.370Z,5184.00
2019-03-30T13:26:58.061Z,5124.00
2019-03-30T13:27:57.056Z,5008.00
2019-03-30T13:28:57.051Z,4948.00
2019-03-30T13:29:57.030Z,5088.00
2019-03-30T13:30:57.028Z,4808.00
2019-03-30T13:31:57.000Z,4784.00
2019-03-30T13:32:57.000Z,4716.00
2019-03-30T13:33:56.989Z,4688.00
2019-03-30T13:34:56.980Z,4496.00
2019-03-30T13:35:56.959Z,4472.00
2019-03-30T13:36:57.000Z,4452.00
2019-03-30T13:37:56.943Z,4468.00
2019-03-30T13:38:56.936Z,4420.00
2019-03-30T13:39:56.919Z,4368.00
2019-03-30T13:40:56.921Z,4432.00
2019-03-30T13:41:56.898Z,4424.00
2019-03-30T13:42:56.894Z,4416.00
2019-03-30T13:43:56.871Z,3316.00
2019-03-30T13:44:56.860Z,3260.00
2019-03-30T13:45:56.855Z,3340.00
2019-03-30T13:46:56.848Z,3420.00
2019-03-30T13:47:56.842Z,3388.00
2019-03-30T13:48:56.816Z,3388.00
2019-03-30T13:49:56.810Z,3136.00
2019-03-30T13:50:56.803Z,3200.00
2019-03-30T13:51:56.793Z,3180.00
2019-03-30T13:52:56.778Z,3404.00
2019-03-30T13:53:56.763Z,3700.00
2019-03-30T13:54:56.753Z,4472.00
2019-03-30T13:55:56.744Z,5828.00
2019-03-30T13:56:56.731Z,5616.00
2019-03-30T13:57:56.723Z,5104.00